Time;durP1;ratioP1;P1;durP2;ratioP2;P2;SDS_P1;SDS_P2;PMS_P1;PMS_P2;Temp;Humidity;BMP_temperature;BMP_pressure;BME280_temperature;BME280_humidity;BME280_pressure;Samples;Min_cycle;Max_cycle;Signal;HPM_P1;HPM_P2
2021/12/31 00:02:23;;;;;;;7.63;2.40;;;;;;;15.41;69.34;101753.19;4944943;28;20121;-60
2021/12/31 00:04:49;;;;;;;7.32;2.58;;;;;;;15.49;69.22;101758.47;4941848;28;20106;-60
2021/12/31 00:07:15;;;;;;;4.63;2.10;;;;;;;15.52;69.21;101755.91;4943345;28;20039;-60
2021/12/31 00:09:41;;;;;;;5.65;2.35;;;;;;;15.59;68.73;101748.97;4930988;28;21472;-59
2021/12/31 00:12:09;;;;;;;7.15;2.28;;;;;;;15.62;68.83;101755.09;4943854;28;20047;-61
2021/12/31 00:14:36;;;;;;;9.48;2.50;;;;;;;15.58;69.03;101755.97;4943602;28;20509;-59
2021/12/31 00:17:01;;;;;;;9.07;2.80;;;;;;;15.56;69.35;101751.53;4942334;28;20345;-61
2021/12/31 00:19:30;;;;;;;8.13;2.38;;;;;;;15.68;68.76;101751.63;4933843;28;20046;-59
2021/12/31 00:21:56;;;;;;;12.80;2.65;;;;;;;15.69;68.87;101750.75;4940661;28;20516;-60
2021/12/31 00:24:24;;;;;;;9.40;2.95;;;;;;;15.64;69.27;101747.22;4939629;28;20050;-60
2021/12/31 00:26:49;;;;;;;7.28;2.75;;;;;;;15.55;69.72;101744.56;4937751;28;20510;-60
2021/12/31 00:29:14;;;;;;;7.40;2.97;;;;;;;15.62;69.61;101747.22;4934420;28;20216;-60
2021/12/31 00:31:41;;;;;;;7.15;3.00;;;;;;;15.63;69.34;101735.84;4926357;28;20038;-61
2021/12/31 00:34:06;;;;;;;9.35;2.97;;;;;;;15.64;69.60;101749.88;4940416;28;20050;-59
2021/12/31 00:36:43;;;;;;;9.48;3.10;;;;;;;15.63;69.79;101748.09;4942075;28;21123;-59
2021/12/31 00:39:08;;;;;;;9.63;3.30;;;;;;;15.67;69.53;101745.53;4932484;28;20509;-59
2021/12/31 00:41:34;;;;;;;10.90;3.25;;;;;;;15.60;69.72;101737.56;4935556;28;20047;-59
2021/12/31 00:44:00;;;;;;;10.55;3.42;;;;;;;15.58;69.93;101741.94;4932995;28;20042;-60
2021/12/31 00:46:26;;;;;;;6.90;3.10;;;;;;;15.54;70.32;101753.31;4943739;28;20030;-60
2021/12/31 00:48:51;;;;;;;6.97;2.88;;;;;;;15.57;70.25;101748.06;4945376;28;20046;-60
2021/12/31 00:51:18;;;;;;;9.13;3.25;;;;;;;15.58;70.52;101747.19;4934065;28;20042;-61
2021/12/31 00:53:44;;;;;;;8.77;3.40;;;;;;;15.52;71.09;101749.75;4934325;28;20047;-59
2021/12/31 00:56:09;;;;;;;9.63;3.50;;;;;;;15.61;70.63;101742.84;4941708;28;20097;-60
2021/12/31 00:58:34;;;;;;;8.68;3.47;;;;;;;15.60;71.00;101750.72;4942862;28;20043;-60
2021/12/31 01:01:00;;;;;;;9.38;3.50;;;;;;;15.55;71.07;101761.22;4939947;28;20142;-60
2021/12/31 01:03:25;;;;;;;8.50;3.70;;;;;;;15.46;71.35;101765.47;4918412;28;20129;-60
2021/12/31 01:05:51;;;;;;;8.20;3.30;;;;;;;15.50;71.37;101761.97;4940106;28;20137;-60
2021/12/31 01:08:16;;;;;;;7.43;3.63;;;;;;;15.47;71.79;101754.09;4941625;28;20046;-59
2021/12/31 01:10:41;;;;;;;8.38;3.70;;;;;;;15.46;71.77;101760.22;4936197;28;20054;-60
2021/12/31 01:13:11;;;;;;;7.45;3.60;;;;;;;15.50;71.33;101760.22;4942935;28;20051;-60
2021/12/31 01:15:41;;;;;;;8.07;3.55;;;;;;;15.41;71.65;101761.06;4934483;28;20561;-61
2021/12/31 01:20:36;;;;;;;10.15;3.40;;;;;;;15.53;71.29;101751.53;4936263;28;20054;-59
2021/12/31 01:23:02;;;;;;;9.68;3.60;;;;;;;15.57;70.97;101756.81;4931280;28;20046;-60
2021/12/31 01:25:27;;;;;;;9.10;3.50;;;;;;;15.57;71.12;101754.19;4938789;28;20182;-60
2021/12/31 01:27:53;;;;;;;9.30;3.45;;;;;;;15.59;71.01;101757.72;4933391;28;20070;-60
2021/12/31 01:30:19;;;;;;;9.75;3.55;;;;;;;15.59;71.03;101760.34;4927120;28;20138;-59
2021/12/31 01:32:45;;;;;;;7.63;3.40;;;;;;;15.68;70.61;101767.41;4935424;28;20047;-61
2021/12/31 01:35:11;;;;;;;7.38;3.65;;;;;;;15.58;70.74;101755.06;4940298;28;20069;-59
2021/12/31 01:37:37;;;;;;;12.43;3.30;;;;;;;15.60;70.53;101763.88;4932946;28;20039;-60
2021/12/31 01:40:03;;;;;;;8.07;3.13;;;;;;;15.69;70.41;101767.41;4939103;28;20045;-60
2021/12/31 01:42:32;;;;;;;8.95;3.50;;;;;;;15.67;70.16;101766.56;4942044;28;20051;-59
2021/12/31 01:45:04;;;;;;;7.70;3.33;;;;;;;15.65;70.47;101767.41;4936319;28;20041;-61
2021/12/31 01:47:35;;;;;;;9.40;3.25;;;;;;;15.66;70.43;101769.16;4936550;28;20060;-60
2021/12/31 01:50:06;;;;;;;7.05;3.33;;;;;;;15.70;70.07;101758.66;4937886;28;20078;-60
2021/12/31 01:52:34;;;;;;;11.02;3.33;;;;;;;15.72;70.05;101763.94;4932726;28;20104;-60
2021/12/31 01:55:01;;;;;;;5.60;2.90;;;;;;;15.73;69.93;101758.72;4939918;28;20070;-59
2021/12/31 01:57:28;;;;;;;6.82;3.00;;;;;;;15.65;70.30;101749.88;4934344;28;20063;-58
2021/12/31 01:59:55;;;;;;;8.43;3.00;;;;;;;15.73;70.04;101763.09;4942293;28;20050;-61
2021/12/31 02:02:20;;;;;;;8.85;3.08;;;;;;;15.67;69.96;101756.03;4938695;28;20043;-59
2021/12/31 02:04:46;;;;;;;7.72;3.17;;;;;;;15.64;70.03;101755.13;4941903;28;20050;-59
2021/12/31 02:07:13;;;;;;;8.02;3.30;;;;;;;15.59;70.18;101767.34;4935309;28;20097;-60
2021/12/31 02:09:45;;;;;;;6.95;2.83;;;;;;;15.53;70.53;101759.44;4933681;28;20244;-60
2021/12/31 02:12:12;;;;;;;8.32;3.50;;;;;;;15.54;70.54;101761.19;4941866;28;20050;-60
2021/12/31 02:14:38;;;;;;;6.95;3.30;;;;;;;15.50;70.53;101756.72;4921714;28;20406;-59
2021/12/31 02:17:07;;;;;;;12.60;3.00;;;;;;;15.57;69.95;101763.81;4936625;28;20570;-59
2021/12/31 02:19:33;;;;;;;7.68;3.10;;;;;;;15.62;70.01;101749.84;4929305;28;20051;-59
2021/12/31 02:21:59;;;;;;;6.88;3.10;;;;;;;15.60;70.23;101750.72;4939045;28;20046;-59
2021/12/31 02:24:24;;;;;;;6.60;3.10;;;;;;;15.62;70.05;101759.47;4943101;28;20059;-61
2021/12/31 02:26:50;;;;;;;6.15;2.78;;;;;;;15.62;69.95;101767.34;4943720;28;20116;-60
2021/12/31 02:29:18;;;;;;;7.45;2.80;;;;;;;15.69;69.76;101754.28;4943452;28;20166;-59
2021/12/31 02:31:45;;;;;;;7.70;2.83;;;;;;;15.65;69.75;101759.50;4930667;28;20350;-60
2021/12/31 02:34:10;;;;;;;6.03;2.70;;;;;;;15.69;69.58;101758.66;4944371;28;20043;-60
2021/12/31 02:36:36;;;;;;;6.68;2.72;;;;;;;15.61;70.09;101760.38;4942063;28;20574;-60
2021/12/31 02:39:01;;;;;;;6.10;3.03;;;;;;;15.59;70.05;101748.97;4934749;28;20050;-60
2021/12/31 02:41:27;;;;;;;6.22;2.90;;;;;;;15.63;69.74;101750.72;4938807;28;20035;-60
2021/12/31 02:43:53;;;;;;;6.03;2.70;;;;;;;15.59;70.03;101751.59;4945158;28;20074;-59
2021/12/31 02:46:18;;;;;;;8.02;2.95;;;;;;;15.65;69.70;101763.03;4936444;28;20479;-61
2021/12/31 02:48:44;;;;;;;7.60;3.22;;;;;;;15.61;69.90;101757.75;4943243;28;20038;-61
2021/12/31 02:51:09;;;;;;;8.07;3.00;;;;;;;15.67;69.81;101757.78;4943502;28;20410;-60
2021/12/31 02:53:41;;;;;;;6.82;2.72;;;;;;;15.69;69.59;101756.91;4938575;28;20046;-60
2021/12/31 02:56:09;;;;;;;6.63;3.00;;;;;;;15.64;69.76;101756.00;4945938;28;20050;-61
2021/12/31 02:58:34;;;;;;;7.20;2.90;;;;;;;15.67;69.80;101765.66;4943073;28;20271;-61
2021/12/31 03:01:00;;;;;;;10.23;3.70;;;;;;;15.68;69.60;101752.50;4938398;28;20046;-60
2021/12/31 03:03:27;;;;;;;9.35;3.30;;;;;;;15.71;69.38;101756.91;4937552;28;20084;-59
2021/12/31 03:05:54;;;;;;;8.70;2.92;;;;;;;15.64;69.64;101748.13;4944319;28;20138;-61
2021/12/31 03:08:22;;;;;;;8.45;3.13;;;;;;;15.70;69.43;101742.91;4941112;28;20050;-59
2021/12/31 03:10:47;;;;;;;8.90;3.40;;;;;;;15.64;69.65;101744.59;4960979;28;20073;-60
2021/12/31 03:13:15;;;;;;;7.97;3.30;;;;;;;15.57;69.83;101740.16;4942083;28;20042;-59
2021/12/31 03:15:41;;;;;;;6.60;2.90;;;;;;;15.66;69.72;101728.00;4932871;28;20042;-59
2021/12/31 03:18:07;;;;;;;8.73;3.17;;;;;;;15.62;69.90;101726.19;4944239;28;20130;-59
2021/12/31 03:20:36;;;;;;;10.60;3.30;;;;;;;15.63;69.39;101717.44;4937574;28;20435;-60
2021/12/31 03:23:05;;;;;;;6.55;3.13;;;;;;;15.59;69.77;101727.94;4943300;28;20050;-59
2021/12/31 03:25:31;;;;;;;9.75;3.20;;;;;;;15.62;69.65;101728.81;4936292;28;20147;-59
2021/12/31 03:27:56;;;;;;;12.80;3.30;;;;;;;15.59;69.88;101720.03;4942823;28;20038;-60
2021/12/31 03:30:22;;;;;;;5.90;3.03;;;;;;;15.62;69.58;101725.31;4937246;28;20054;-60
2021/12/31 03:32:47;;;;;;;6.30;2.75;;;;;;;15.61;69.91;101724.47;4941647;28;20053;-61
2021/12/31 03:35:13;;;;;;;6.18;2.78;;;;;;;15.64;69.45;101728.84;4937917;28;20100;-61
2021/12/31 03:37:38;;;;;;;6.55;2.90;;;;;;;15.57;69.51;101729.66;4933770;28;20366;-60
2021/12/31 03:40:04;;;;;;;6.00;2.60;;;;;;;15.66;69.15;101735.00;4945741;28;20585;-59
2021/12/31 03:42:30;;;;;;;7.82;3.45;;;;;;;15.69;69.24;101735.00;4938465;28;20049;-60
2021/12/31 03:44:56;;;;;;;7.88;2.80;;;;;;;15.72;68.80;101722.75;4945066;28;20054;-59
2021/12/31 03:47:21;;;;;;;7.55;2.67;;;;;;;15.64;69.38;101721.81;4936771;28;20046;-59
2021/12/31 03:49:46;;;;;;;7.78;3.38;;;;;;;15.66;69.06;101727.09;4936126;28;20050;-60
2021/12/31 03:52:12;;;;;;;9.07;3.17;;;;;;;15.65;68.71;101728.84;4941588;28;20035;-60
2021/12/31 03:54:37;;;;;;;7.40;2.75;;;;;;;15.67;68.66;101737.63;4936989;28;20042;-60
2021/12/31 03:57:03;;;;;;;5.22;2.60;;;;;;;15.73;68.48;101737.69;4943498;28;20046;-61
2021/12/31 03:59:28;;;;;;;7.22;2.70;;;;;;;15.77;68.30;101728.91;4937258;28;20130;-59
2021/12/31 04:01:54;;;;;;;9.77;2.80;;;;;;;15.61;68.79;101739.34;4938776;28;20049;-60
2021/12/31 04:04:19;;;;;;;7.22;2.88;;;;;;;15.71;68.42;101733.25;4942507;28;20145;-60
2021/12/31 04:06:44;;;;;;;7.90;2.70;;;;;;;15.73;68.29;101734.16;4944957;28;20042;-59
2021/12/31 04:09:10;;;;;;;6.03;2.80;;;;;;;15.76;68.22;101729.78;4939598;28;20142;-60
2021/12/31 04:11:35;;;;;;;9.07;2.78;;;;;;;15.77;67.96;101733.28;4932731;28;20047;-58
2021/12/31 04:14:00;;;;;;;7.60;2.70;;;;;;;15.82;67.95;101737.72;4929245;28;21052;-60
2021/12/31 04:16:32;;;;;;;5.13;2.50;;;;;;;15.78;67.79;101733.31;4944335;28;20458;-60
2021/12/31 04:18:58;;;;;;;6.93;2.78;;;;;;;15.78;67.89;101728.06;4940764;28;20047;-59
2021/12/31 04:21:24;;;;;;;7.22;2.60;;;;;;;15.71;67.75;101715.75;4939483;28;20392;-60
2021/12/31 04:24:06;;;;;;;5.57;2.38;;;;;;;15.75;67.72;101719.25;4944584;28;20046;-60
2021/12/31 04:26:31;;;;;;;6.65;2.60;;;;;;;15.58;68.22;101692.88;4941408;28;20230;-59
2021/12/31 04:28:57;;;;;;;5.38;2.40;;;;;;;15.62;67.80;101699.03;4937527;28;20094;-59
2021/12/31 04:31:23;;;;;;;7.15;2.90;;;;;;;15.58;67.88;101700.75;4941357;28;20074;-61
2021/12/31 04:33:48;;;;;;;5.93;2.60;;;;;;;15.42;68.43;101699.75;4939566;28;20047;-59
2021/12/31 04:36:14;;;;;;;5.70;2.70;;;;;;;15.41;68.24;101697.13;4940784;28;20039;-58
2021/12/31 04:38:39;;;;;;;7.50;2.60;;;;;;;15.37;68.15;101696.19;4941103;28;20050;-60
2021/12/31 04:41:05;;;;;;;5.38;2.40;;;;;;;15.21;68.65;101694.34;4945452;28;20078;-59
2021/12/31 04:43:30;;;;;;;6.50;2.45;;;;;;;15.22;68.53;101690.84;4934914;28;20066;-59
2021/12/31 04:45:55;;;;;;;8.30;2.65;;;;;;;15.10;68.76;101693.38;4948385;28;20032;-60
2021/12/31 04:48:21;;;;;;;6.13;2.60;;;;;;;15.13;68.81;101675.00;4940271;28;20054;-59
2021/12/31 04:50:46;;;;;;;5.28;2.50;;;;;;;15.02;69.14;101669.69;4943544;28;20399;-59
2021/12/31 04:53:12;;;;;;;5.38;2.60;;;;;;;15.05;69.04;101647.84;4942789;28;20039;-61
2021/12/31 04:55:37;;;;;;;4.28;2.40;;;;;;;15.15;68.72;101654.03;4932182;28;20043;-59
2021/12/31 04:58:03;;;;;;;8.73;2.72;;;;;;;15.03;69.00;101663.56;4937504;28;20079;-61
2021/12/31 05:00:28;;;;;;;6.20;2.60;;;;;;;14.95;69.03;101648.63;4931666;28;20115;-59
2021/12/31 05:02:54;;;;;;;5.10;2.47;;;;;;;15.05;68.49;101649.59;4940343;28;20175;-61
2021/12/31 05:05:19;;;;;;;5.72;2.53;;;;;;;15.14;68.05;101665.38;4934266;28;20497;-60
2021/12/31 05:07:45;;;;;;;5.10;2.30;;;;;;;15.19;67.91;101661.91;4938050;28;20050;-60
2021/12/31 05:10:10;;;;;;;4.47;2.50;;;;;;;15.22;67.73;101669.84;4935044;28;20045;-59
2021/12/31 05:12:38;;;;;;;6.90;2.20;;;;;;;15.21;67.91;101664.56;4941295;28;20647;-59
2021/12/31 05:15:09;;;;;;;6.97;2.80;;;;;;;15.28;67.44;101663.75;4942851;28;20454;-60
2021/12/31 05:17:35;;;;;;;6.35;2.30;;;;;;;15.25;67.52;101679.47;4931889;28;20058;-60
2021/12/31 05:20:00;;;;;;;5.78;2.40;;;;;;;15.33;67.13;101680.41;4941834;28;20057;-59
2021/12/31 05:22:26;;;;;;;5.90;2.50;;;;;;;15.25;67.37;101684.72;4937721;28;20427;-59
2021/12/31 05:24:53;;;;;;;6.93;2.28;;;;;;;15.27;67.23;101683.88;4942027;28;20480;-60
2021/12/31 05:27:19;;;;;;;6.50;2.47;;;;;;;15.29;67.10;101689.16;4930304;28;20160;-59
2021/12/31 05:29:44;;;;;;;6.50;2.47;;;;;;;15.19;67.45;101684.69;4932106;28;20491;-59
2021/12/31 05:32:10;;;;;;;5.03;2.38;;;;;;;15.16;67.54;101677.69;4936191;28;20048;-59
2021/12/31 05:34:35;;;;;;;6.07;2.50;;;;;;;15.12;67.76;101689.03;4936472;28;20046;-59
2021/12/31 05:37:00;;;;;;;6.25;2.80;;;;;;;15.11;67.54;101684.66;4941399;28;20193;-60
2021/12/31 05:39:26;;;;;;;5.45;2.58;;;;;;;15.09;67.96;101691.63;4933506;28;20442;-60
2021/12/31 05:41:52;;;;;;;6.70;2.70;;;;;;;15.12;67.77;101685.53;4941305;28;20046;-59
2021/12/31 05:44:18;;;;;;;4.78;2.60;;;;;;;15.07;68.02;101687.22;4932459;28;20286;-59
2021/12/31 05:46:44;;;;;;;5.90;2.67;;;;;;;15.05;68.02;101683.72;4937557;28;20050;-61
2021/12/31 05:49:10;;;;;;;6.50;2.50;;;;;;;15.09;68.01;101688.13;4939704;28;20467;-61
2021/12/31 05:51:35;;;;;;;6.43;2.78;;;;;;;15.08;67.89;101683.72;4936837;28;20146;-60
2021/12/31 05:54:00;;;;;;;7.28;2.35;;;;;;;15.13;67.94;101688.16;4943180;28;20047;-60
2021/12/31 05:56:26;;;;;;;5.63;2.75;;;;;;;15.14;67.65;101689.91;4942299;28;20088;-60
2021/12/31 05:58:51;;;;;;;5.97;2.33;;;;;;;15.25;67.43;101679.47;4943169;28;20546;-59
2021/12/31 06:01:16;;;;;;;6.85;2.25;;;;;;;15.17;67.49;101687.31;4937941;28;20695;-59
2021/12/31 06:03:42;;;;;;;5.43;2.65;;;;;;;15.09;67.58;101686.38;4936484;28;21913;-59
2021/12/31 06:06:07;;;;;;;6.65;2.40;;;;;;;15.10;67.46;101685.50;4945376;28;20485;-60
2021/12/31 06:08:33;;;;;;;7.10;2.88;;;;;;;15.04;67.39;101677.59;4943720;28;20042;-59
2021/12/31 06:10:58;;;;;;;6.10;2.67;;;;;;;15.00;67.56;101662.69;4947495;28;20058;-60
2021/12/31 06:13:24;;;;;;;8.25;2.75;;;;;;;14.83;67.89;101667.78;4928974;28;20058;-60
2021/12/31 06:15:55;;;;;;;4.65;2.47;;;;;;;14.79;68.37;101665.13;4931373;28;20042;-60
2021/12/31 06:18:21;;;;;;;6.90;2.95;;;;;;;14.78;68.20;101652.84;4942250;28;20515;-60
2021/12/31 06:20:47;;;;;;;8.10;2.95;;;;;;;14.59;69.02;101649.19;4940503;28;20066;-60
2021/12/31 06:23:12;;;;;;;4.97;2.67;;;;;;;14.60;68.77;101638.72;4948412;28;20506;-59
2021/12/31 06:25:37;;;;;;;6.55;3.17;;;;;;;14.59;68.97;101622.94;4929045;28;20343;-59
2021/12/31 06:28:03;;;;;;;6.78;2.90;;;;;;;14.61;68.92;101634.34;4943757;28;20082;-60
2021/12/31 06:30:28;;;;;;;5.63;2.90;;;;;;;14.59;68.83;101628.19;4938563;28;20046;-60
2021/12/31 06:32:54;;;;;;;7.50;3.05;;;;;;;14.59;68.94;101633.44;4939240;28;20039;-60
2021/12/31 06:35:20;;;;;;;7.38;3.20;;;;;;;14.51;69.33;101629.88;4938216;28;20398;-59
2021/12/31 06:37:47;;;;;;;7.55;3.10;;;;;;;14.59;68.97;101626.44;4939597;28;21369;-59
2021/12/31 06:40:14;;;;;;;5.18;2.90;;;;;;;14.40;69.52;101624.50;4937519;28;20291;-59
2021/12/31 06:42:39;;;;;;;5.70;2.80;;;;;;;14.52;69.09;101636.88;4943878;28;20112;-59
2021/12/31 06:45:05;;;;;;;8.45;3.00;;;;;;;14.57;68.73;101646.56;4936407;28;20478;-59
2021/12/31 06:47:31;;;;;;;6.97;3.08;;;;;;;14.44;69.33;101638.56;4936377;28;20059;-60
2021/12/31 06:49:56;;;;;;;7.38;3.05;;;;;;;14.58;68.55;101650.94;4945001;28;20161;-60
2021/12/31 06:52:21;;;;;;;5.50;2.95;;;;;;;14.57;68.57;101654.44;4939365;28;20069;-60
2021/12/31 06:54:47;;;;;;;7.70;2.97;;;;;;;14.48;68.92;101656.97;4942749;28;20053;-59
2021/12/31 06:57:12;;;;;;;5.20;2.88;;;;;;;14.52;68.77;101658.75;4946453;28;20074;-62
2021/12/31 06:59:38;;;;;;;7.60;2.80;;;;;;;14.52;68.78;101655.22;4928051;28;20484;-59
2021/12/31 07:02:03;;;;;;;6.50;2.92;;;;;;;14.50;68.83;101650.00;4945746;28;20050;-60
2021/12/31 07:04:28;;;;;;;6.78;2.80;;;;;;;14.51;68.68;101659.63;4946635;28;20147;-60
2021/12/31 07:06:54;;;;;;;5.43;3.10;;;;;;;14.48;68.72;101666.56;4946069;28;20183;-59
2021/12/31 07:09:19;;;;;;;6.03;3.30;;;;;;;14.39;69.39;101667.38;4938204;28;20049;-59
2021/12/31 07:11:45;;;;;;;8.48;3.38;;;;;;;14.35;69.50;101676.03;4936091;28;20055;-59
2021/12/31 07:14:11;;;;;;;7.25;3.30;;;;;;;14.46;68.96;101663.03;4946394;28;20451;-60
2021/12/31 07:16:36;;;;;;;8.38;3.28;;;;;;;14.38;69.11;101681.34;4944606;28;20634;-60
2021/12/31 07:19:01;;;;;;;7.05;3.55;;;;;;;14.43;69.06;101666.53;4944169;28;20055;-61
2021/12/31 07:21:27;;;;;;;5.55;3.50;;;;;;;14.34;69.33;101662.88;4926382;28;20451;-60
2021/12/31 07:23:52;;;;;;;5.07;3.03;;;;;;;14.45;68.94;101663.94;4941239;28;20108;-60
2021/12/31 07:26:18;;;;;;;6.88;3.38;;;;;;;14.40;69.13;101669.13;4943013;28;20461;-58
2021/12/31 07:28:43;;;;;;;6.20;3.17;;;;;;;14.46;69.00;101663.94;4942719;28;20364;-61
2021/12/31 07:31:12;;;;;;;6.00;3.10;;;;;;;14.40;69.12;101662.97;4946088;28;20085;-60
2021/12/31 07:33:38;;;;;;;6.68;3.20;;;;;;;14.52;68.73;101677.09;4933381;28;21026;-59
2021/12/31 07:36:03;;;;;;;5.90;3.20;;;;;;;14.43;69.07;101660.41;4940029;28;20027;-59
2021/12/31 07:38:34;;;;;;;6.70;3.20;;;;;;;14.45;69.07;101661.31;4946321;28;20050;-59
2021/12/31 07:40:59;;;;;;;6.40;3.15;;;;;;;14.34;69.24;101653.28;4942142;28;20609;-59
2021/12/31 07:43:28;;;;;;;7.07;3.30;;;;;;;14.49;68.79;101649.97;4938128;28;20055;-59
2021/12/31 07:45:53;;;;;;;7.45;3.45;;;;;;;14.53;68.57;101650.00;4943131;28;20506;-60
2021/12/31 07:48:22;;;;;;;6.95;3.50;;;;;;;14.41;68.93;101649.00;4942427;28;20117;-59
2021/12/31 07:50:48;;;;;;;7.97;3.10;;;;;;;14.46;68.65;101661.31;4935161;28;20038;-59
2021/12/31 07:53:13;;;;;;;5.20;2.97;;;;;;;14.43;68.68;101655.16;4942943;28;20043;-60
2021/12/31 07:55:39;;;;;;;5.53;3.03;;;;;;;14.48;68.57;101664.84;4934204;28;20526;-59
2021/12/31 07:58:07;;;;;;;7.60;3.10;;;;;;;14.48;68.72;101661.31;4940217;28;20047;-61
2021/12/31 08:00:33;;;;;;;4.95;2.90;;;;;;;14.46;68.72;101663.03;4938270;28;20196;-60
2021/12/31 08:02:59;;;;;;;6.45;3.10;;;;;;;14.43;68.66;101657.78;4941066;28;20525;-61
2021/12/31 08:05:26;;;;;;;6.50;2.92;;;;;;;14.45;68.45;101672.69;4935883;28;20039;-61
2021/12/31 08:07:51;;;;;;;6.47;3.00;;;;;;;14.52;68.35;101674.47;4942352;28;20058;-59
2021/12/31 08:10:17;;;;;;;6.65;3.20;;;;;;;14.44;68.68;101683.16;4937026;28;20078;-60
2021/12/31 08:12:43;;;;;;;5.43;3.10;;;;;;;14.40;68.58;101684.84;4958013;28;20046;-60
2021/12/31 08:15:08;;;;;;;6.53;3.00;;;;;;;14.42;68.70;101682.25;4934258;28;20035;-59
2021/12/31 08:17:34;;;;;;;6.22;3.10;;;;;;;14.45;68.53;101685.81;4937443;28;20053;-59
2021/12/31 08:19:59;;;;;;;7.32;3.10;;;;;;;14.44;68.69;101684.03;4940435;28;20041;-61
2021/12/31 08:22:25;;;;;;;5.25;2.97;;;;;;;14.46;68.63;101692.78;4937487;28;20038;-61
2021/12/31 08:24:51;;;;;;;5.65;3.08;;;;;;;14.45;68.71;101677.94;4943986;28;20038;-61
2021/12/31 08:27:17;;;;;;;6.28;3.20;;;;;;;14.42;68.94;101672.63;4939773;28;20560;-60
2021/12/31 08:29:42;;;;;;;6.78;3.03;;;;;;;14.51;68.64;101675.38;4929496;28;21391;-61
2021/12/31 08:32:07;;;;;;;5.57;3.33;;;;;;;14.55;68.50;101673.66;4943201;28;20042;-60
2021/12/31 08:34:33;;;;;;;8.65;3.30;;;;;;;14.48;68.49;101659.59;4940570;28;20394;-59
2021/12/31 08:36:58;;;;;;;7.22;3.53;;;;;;;14.51;68.29;101667.50;4941034;28;20043;-60
2021/12/31 08:39:24;;;;;;;7.88;3.28;;;;;;;14.53;68.33;101684.13;4929329;28;20138;-64
2021/12/31 08:41:51;;;;;;;7.18;3.45;;;;;;;14.51;68.43;101675.38;4944918;28;20069;-60
2021/12/31 08:44:17;;;;;;;7.15;3.25;;;;;;;14.49;68.71;101687.59;4936986;28;20050;-60
2021/12/31 08:46:43;;;;;;;7.10;3.22;;;;;;;14.48;68.72;101691.06;4941004;28;20067;-59
2021/12/31 08:49:08;;;;;;;6.75;3.70;;;;;;;14.50;68.53;101686.72;4940328;28;20259;-59
2021/12/31 08:51:34;;;;;;;6.47;3.33;;;;;;;14.46;68.50;101677.03;4937228;28;20047;-60
2021/12/31 08:53:59;;;;;;;7.65;3.50;;;;;;;14.59;68.63;101670.19;4940654;28;20201;-61
2021/12/31 08:56:25;;;;;;;9.77;3.22;;;;;;;14.56;68.72;101685.91;4942018;28;20105;-60
2021/12/31 08:58:50;;;;;;;6.47;3.15;;;;;;;14.67;68.03;101680.75;4935259;28;20035;-60
2021/12/31 09:01:16;;;;;;;7.72;3.20;;;;;;;14.66;68.17;101698.25;4942803;28;20085;-59
2021/12/31 09:03:41;;;;;;;5.78;2.97;;;;;;;14.63;68.17;101682.47;4937016;28;20121;-59
2021/12/31 09:06:07;;;;;;;6.57;3.30;;;;;;;14.66;67.94;101685.13;4938194;28;20468;-61
2021/12/31 09:08:33;;;;;;;7.63;3.10;;;;;;;14.78;67.68;101706.22;4939498;28;20555;-59
2021/12/31 09:10:59;;;;;;;5.85;3.00;;;;;;;14.68;67.75;101687.78;4937177;28;20374;-60
2021/12/31 09:13:24;;;;;;;6.25;3.00;;;;;;;14.75;67.54;101690.47;4937540;28;20047;-62
2021/12/31 09:15:50;;;;;;;5.43;3.15;;;;;;;14.69;67.67;101700.03;4956609;28;20471;-60
2021/12/31 09:18:15;;;;;;;5.25;2.70;;;;;;;14.82;67.37;101710.63;4941601;28;20421;-59
2021/12/31 09:20:40;;;;;;;5.00;3.00;;;;;;;14.81;67.35;101731.66;4937029;28;20065;-60
2021/12/31 09:23:06;;;;;;;7.43;3.00;;;;;;;14.81;67.27;101727.28;4944068;28;20518;-59
2021/12/31 09:25:31;;;;;;;5.68;3.03;;;;;;;14.90;66.83;101724.72;4932336;28;20414;-60
2021/12/31 09:27:57;;;;;;;6.60;3.20;;;;;;;14.92;67.02;101724.75;4935726;28;20602;-60
2021/12/31 09:30:22;;;;;;;5.68;2.97;;;;;;;14.74;67.52;101720.22;4938523;28;20065;-60
2021/12/31 09:32:47;;;;;;;6.50;2.95;;;;;;;14.75;67.38;101707.97;4935631;28;20174;-60
2021/12/31 09:35:13;;;;;;;8.20;2.90;;;;;;;14.86;67.00;101716.81;4933919;28;20097;-59
2021/12/31 09:37:39;;;;;;;6.28;3.22;;;;;;;14.70;67.66;101725.41;4933860;28;20892;-59
2021/12/31 09:40:06;;;;;;;5.60;2.80;;;;;;;14.82;67.42;101729.00;4934713;28;20487;-60
2021/12/31 09:42:31;;;;;;;6.32;3.15;;;;;;;14.72;67.47;101742.94;4940259;28;20251;-62
2021/12/31 09:44:56;;;;;;;5.70;2.85;;;;;;;14.77;67.59;101756.09;4943887;28;20039;-60
2021/12/31 09:47:22;;;;;;;7.03;2.95;;;;;;;14.97;66.93;101746.66;4939246;28;20062;-61
2021/12/31 09:49:48;;;;;;;5.95;3.10;;;;;;;14.85;67.15;101728.19;4937533;28;20142;-60
2021/12/31 09:52:14;;;;;;;8.05;4.22;;;;;;;15.09;66.75;101727.50;4933701;28;20357;-59
2021/12/31 09:54:41;;;;;;;5.63;3.03;;;;;;;15.12;66.38;101712.69;4926290;28;20085;-60
2021/12/31 09:57:14;;;;;;;6.18;2.80;;;;;;;15.04;66.33;101719.59;4924142;28;20130;-60
2021/12/31 09:59:41;;;;;;;5.32;2.80;;;;;;;15.10;66.30;101711.78;4934247;28;20541;-59
2021/12/31 10:02:06;;;;;;;5.22;3.08;;;;;;;15.13;66.43;101731.91;4931142;28;20030;-59
2021/12/31 10:04:53;;;;;;;5.80;3.00;;;;;;;15.06;66.51;101738.88;4940238;28;20336;-60
2021/12/31 10:07:21;;;;;;;8.15;2.92;;;;;;;15.09;66.34;101743.28;4928271;28;20075;-60
2021/12/31 10:10:07;;;;;;;7.82;3.15;;;;;;;15.14;66.34;101758.19;4932168;28;20043;-60
2021/12/31 10:12:52;;;;;;;6.28;2.97;;;;;;;14.89;67.22;101749.22;4940196;28;20377;-59
2021/12/31 10:15:24;;;;;;;6.45;3.13;;;;;;;15.05;66.76;101749.38;4941005;28;20043;-60
2021/12/31 10:17:50;;;;;;;6.75;2.90;;;;;;;14.94;66.72;101736.16;4940598;28;20039;-59
2021/12/31 10:20:16;;;;;;;7.80;3.08;;;;;;;15.06;66.46;101727.50;4939383;28;20043;-60
2021/12/31 10:22:44;;;;;;;7.90;3.22;;;;;;;15.06;66.58;101714.38;4938920;28;20042;-60
2021/12/31 10:25:21;;;;;;;8.35;2.90;;;;;;;15.14;66.33;101700.41;4948929;28;20026;-61
2021/12/31 10:27:50;;;;;;;6.80;3.35;;;;;;;15.17;66.02;101671.56;4933556;28;20034;-59
2021/12/31 10:30:22;;;;;;;5.78;3.00;;;;;;;15.12;66.51;101620.75;4931018;28;20117;-60
2021/12/31 10:32:47;;;;;;;7.03;3.20;;;;;;;15.01;66.82;101641.66;4936715;28;21056;-60
2021/12/31 10:35:20;;;;;;;6.82;3.40;;;;;;;15.16;66.38;101642.66;4940655;28;20482;-60
2021/12/31 10:37:48;;;;;;;6.53;3.38;;;;;;;15.29;66.20;101649.75;4936378;28;20142;-60
2021/12/31 10:40:31;;;;;;;8.63;3.42;;;;;;;15.36;65.81;101677.81;4937332;28;20042;-60
2021/12/31 10:43:18;;;;;;;9.85;3.88;;;;;;;15.42;65.79;101693.63;4935609;28;20042;-60
2021/12/31 10:46:03;;;;;;;10.57;3.70;;;;;;;15.66;65.19;101700.81;4933056;28;20553;-59
2021/12/31 10:48:38;;;;;;;7.90;3.63;;;;;;;15.71;65.00;101699.09;4945904;28;20498;-60
2021/12/31 10:51:03;;;;;;;8.85;3.85;;;;;;;15.73;64.56;101685.09;4946201;28;20051;-60
2021/12/31 10:53:34;;;;;;;8.18;3.90;;;;;;;15.96;63.95;101692.19;4946903;28;20035;-60
2021/12/31 10:56:07;;;;;;;7.88;3.55;;;;;;;16.07;63.59;101699.25;4941861;28;20435;-62
2021/12/31 10:58:33;;;;;;;8.60;3.20;;;;;;;16.11;63.52;101701.00;4927287;28;20054;-59
2021/12/31 11:00:59;;;;;;;7.53;3.45;;;;;;;16.17;63.13;101698.41;4937740;28;20042;-60
2021/12/31 11:03:24;;;;;;;6.82;3.00;;;;;;;15.99;63.62;101706.22;4937970;28;20120;-60
2021/12/31 11:05:50;;;;;;;6.30;2.90;;;;;;;15.99;63.68;101700.97;4938073;28;20758;-60
2021/12/31 11:08:15;;;;;;;6.43;2.90;;;;;;;15.88;63.97;101702.69;4938606;28;20635;-59
2021/12/31 11:10:41;;;;;;;8.25;3.40;;;;;;;15.77;64.05;101709.63;4938246;28;20062;-59
2021/12/31 11:13:09;;;;;;;7.90;3.50;;;;;;;15.77;64.46;101707.00;4943780;28;20051;-60
2021/12/31 11:15:34;;;;;;;9.38;3.60;;;;;;;15.69;65.59;101708.72;4932805;28;20038;-60
2021/12/31 11:18:00;;;;;;;9.30;3.47;;;;;;;15.61;66.41;101711.31;4944148;28;20497;-59
2021/12/31 11:20:26;;;;;;;7.95;3.60;;;;;;;15.60;66.86;101716.56;4941007;28;20471;-61
2021/12/31 11:22:51;;;;;;;6.90;3.67;;;;;;;15.50;66.88;101709.41;4944151;28;20054;-60
2021/12/31 11:25:17;;;;;;;5.60;3.10;;;;;;;15.41;66.86;101715.50;4945206;28;20127;-61